createdAt,value
2022-12-04T00:16:57.683Z,101384.80
2022-12-04T00:47:01.481Z,101371.24
2022-12-04T01:17:05.813Z,101358.67
2022-12-04T01:47:08.638Z,101364.17
2022-12-04T02:17:12.195Z,101336.99
2022-12-04T02:47:15.004Z,101334.53
2022-12-04T03:17:19.470Z,101321.02
2022-12-04T03:47:22.435Z,101300.44
2022-12-04T04:17:26.208Z,101311.89
2022-12-04T04:47:29.401Z,101287.02
2022-12-04T05:17:32.445Z,101296.63
2022-12-04T05:47:35.958Z,101302.01
2022-12-04T06:17:40.113Z,101293.59
2022-12-04T06:47:43.330Z,101305.67
2022-12-04T07:17:46.372Z,101305.92
2022-12-04T07:47:49.672Z,101319.02
2022-12-04T08:17:52.755Z,101304.61
2022-12-04T08:47:55.600Z,101304.28
2022-12-04T09:17:59.164Z,101338.93
2022-12-04T09:48:02.215Z,101321.13
2022-12-04T10:18:06.477Z,101296.41
2022-12-04T10:48:09.557Z,101281.22
2022-12-04T11:18:13.381Z,101256.45
2022-12-04T11:48:16.258Z,101256.47
2022-12-04T12:18:21.040Z,101239.30
2022-12-04T12:48:25.658Z,101221.13
2022-12-04T13:18:29.659Z,101198.62
2022-12-04T13:48:32.744Z,101206.42
2022-12-04T14:18:37.454Z,101201.08
2022-12-04T14:48:40.306Z,101216.33
2022-12-04T15:18:43.907Z,101214.54
2022-12-04T15:48:48.120Z,101227.48
2022-12-04T16:18:51.671Z,101227.34
2022-12-04T16:48:54.567Z,101232.42
2022-12-04T17:18:58.747Z,101227.09
2022-12-04T17:49:06.846Z,101225.38
2022-12-04T18:19:11.923Z,101234.06
2022-12-04T19:10:09.299Z,101271.03
2022-12-04T19:39:56.790Z,101281.36
2022-12-04T20:10:00.292Z,101257.23
2022-12-04T20:40:04.760Z,101255.39
2022-12-04T21:10:07.729Z,101232.94
2022-12-04T21:40:11.371Z,101215.64
2022-12-04T22:10:14.184Z,101219.75
2022-12-04T22:40:18.013Z,101212.77
2022-12-04T23:10:21.137Z,101193.75
2022-12-04T23:40:24.611Z,101186.73
